^^
Station Historical Data
Daily Summary for March 8, 2017 Units:  Both    English   Metric
« Previous Day
Next Day »
Daily Weekly Monthly Yearly Custom
  High: Low: Average:
Temperature: 85.3 °F /  29.6 °C 61.5 °F /  16.4 °C 71.5 °F /  21.9 °C
Dew Point: 62.6 °F /  17 °C 57.2 °F /  14 °C 60.1 °F /  15.6 °C
Humidity: 88% 42% 69%
Wind Speed: 17.0mph /  27.4km/h - 2.4mph /  3.9km/h
Wind Gust: 19.0mph /  30.6km/h - -
Wind- - East
Pressure: 29.79 in /  1008.7 hPa 29.64 in /  1003.6 hPa -
Precipitation: 0.00 in /  0 mm    
Historical Graphs
 
 
Tabular Data for March 8, 2017
Time Temperature Dew Point Pressure Wind Wind Speed Wind Gust Humidity Rainfall Rate (Hourly) solar Conditions
00:05 70.9 °F /  21.6 °C 57.2 °F /  14 °C 29.75in /  1007.3hPa SE 4.0mph /  6.4km/h 10.0mph /  16.1km/h 62% 0.00in /  0mm 0.0 W/m2
00:11 70.7 °F /  21.5 °C 57.6 °F /  14.2 °C 29.75in /  1007.3hPa East 4.0mph /  6.4km/h 10.0mph /  16.1km/h 63% 0.00in /  0mm 0.0 W/m2
00:17 70.5 °F /  21.4 °C 57.7 °F /  14.3 °C 29.75in /  1007.3hPa ESE 0.9mph /  1.4km/h 5.0mph /  8km/h 64% 0.00in /  0mm 0.0 W/m2
00:23 70.3 °F /  21.3 °C 58.1 °F /  14.5 °C 29.75in /  1007.3hPa SE 0.9mph /  1.4km/h 2.0mph /  3.2km/h 65% 0.00in /  0mm 0.0 W/m2
00:29 70.3 °F /  21.3 °C 58.1 °F /  14.5 °C 29.76in /  1007.7hPa ESE 2.0mph /  3.2km/h 7.0mph /  11.3km/h 65% 0.00in /  0mm 0.0 W/m2
00:35 70.2 °F /  21.2 °C 58.3 °F /  14.6 °C 29.76in /  1007.7hPa ENE 4.0mph /  6.4km/h 5.0mph /  8km/h 66% 0.00in /  0mm 0.0 W/m2
00:41 70.0 °F /  21.1 °C 58.5 °F /  14.7 °C 29.76in /  1007.7hPa ESE 6.0mph /  9.7km/h 8.0mph /  12.9km/h 67% 0.00in /  0mm 0.0 W/m2
00:48 69.6 °F /  20.9 °C 58.6 °F /  14.8 °C 29.75in /  1007.3hPa ESE 2.9mph /  4.7km/h 3.0mph /  4.8km/h 68% 0.00in /  0mm 0.0 W/m2
00:54 69.4 °F /  20.8 °C 58.5 °F /  14.7 °C 29.75in /  1007.3hPa East 4.0mph /  6.4km/h 4.0mph /  6.4km/h 68% 0.00in /  0mm 0.0 W/m2
01:00 69.1 °F /  20.6 °C 58.5 °F /  14.7 °C 29.75in /  1007.3hPa Calm   3.0mph /  4.8km/h 69% 0.00in /  0mm 0.0 W/m2
01:06 68.7 °F /  20.4 °C 58.5 °F /  14.7 °C 29.76in /  1007.7hPa ESE 2.0mph /  3.2km/h 6.0mph /  9.7km/h 70% 0.00in /  0mm 0.0 W/m2
01:12 68.5 °F /  20.3 °C 58.8 °F /  14.9 °C 29.76in /  1007.7hPa ENE 0.9mph /  1.4km/h 6.0mph /  9.7km/h 71% 0.00in /  0mm 0.0 W/m2
01:18 68.4 °F /  20.2 °C 59.0 °F /  15 °C 29.76in /  1007.7hPa SE 0.9mph /  1.4km/h 6.0mph /  9.7km/h 72% 0.00in /  0mm 0.0 W/m2
01:24 68.2 °F /  20.1 °C 59.2 °F /  15.1 °C 29.76in /  1007.7hPa NNE 2.0mph /  3.2km/h 4.0mph /  6.4km/h 73% 0.00in /  0mm 0.0 W/m2
01:30 68.2 °F /  20.1 °C 59.2 °F /  15.1 °C 29.75in /  1007.3hPa ENE 0.9mph /  1.4km/h 5.0mph /  8km/h 73% 0.00in /  0mm 0.0 W/m2
01:36 68.0 °F /  20 °C 59.4 °F /  15.2 °C 29.75in /  1007.3hPa Calm   6.0mph /  9.7km/h 74% 0.00in /  0mm 0.0 W/m2
01:42 67.8 °F /  19.9 °C 59.5 °F /  15.3 °C 29.75in /  1007.3hPa East 2.0mph /  3.2km/h 6.0mph /  9.7km/h 75% 0.00in /  0mm 0.0 W/m2
01:48 67.8 °F /  19.9 °C 59.5 °F /  15.3 °C 29.74in /  1007hPa ESE 0.9mph /  1.4km/h 9.0mph /  14.5km/h 75% 0.00in /  0mm 0.0 W/m2
01:54 67.6 °F /  19.8 °C 59.7 °F /  15.4 °C 29.74in /  1007hPa ENE 2.0mph /  3.2km/h 12.0mph /  19.3km/h 76% 0.00in /  0mm 0.0 W/m2
02:00 67.6 °F /  19.8 °C 59.7 °F /  15.4 °C 29.74in /  1007hPa SE 2.9mph /  4.7km/h 9.0mph /  14.5km/h 76% 0.00in /  0mm 0.0 W/m2
02:07 67.5 °F /  19.7 °C 59.5 °F /  15.3 °C 29.74in /  1007hPa East 0.9mph /  1.4km/h 7.0mph /  11.3km/h 76% 0.00in /  0mm 0.0 W/m2
02:13 67.5 °F /  19.7 °C 60.1 °F /  15.6 °C 29.74in /  1007hPa ESE 2.9mph /  4.7km/h 12.0mph /  19.3km/h 77% 0.00in /  0mm 0.0 W/m2
02:19 67.5 °F /  19.7 °C 60.1 °F /  15.6 °C 29.74in /  1007hPa SE 4.9mph /  7.9km/h 7.0mph /  11.3km/h 77% 0.00in /  0mm 0.0 W/m2
02:25 67.3 °F /  19.6 °C 60.3 °F /  15.7 °C 29.73in /  1006.7hPa SSE 6.0mph /  9.7km/h 7.0mph /  11.3km/h 78% 0.00in /  0mm 0.0 W/m2
02:31 67.3 °F /  19.6 °C 60.3 °F /  15.7 °C 29.73in /  1006.7hPa SSE 2.9mph /  4.7km/h 10.0mph /  16.1km/h 78% 0.00in /  0mm 0.0 W/m2
02:37 67.1 °F /  19.5 °C 60.1 °F /  15.6 °C 29.73in /  1006.7hPa East 2.0mph /  3.2km/h 7.0mph /  11.3km/h 78% 0.00in /  0mm 0.0 W/m2
02:43 66.9 °F /  19.4 °C 59.9 °F /  15.5 °C 29.73in /  1006.7hPa Calm   7.0mph /  11.3km/h 78% 0.00in /  0mm 0.0 W/m2
02:49 66.7 °F /  19.3 °C 60.1 °F /  15.6 °C 29.73in /  1006.7hPa Calm   4.0mph /  6.4km/h 79% 0.00in /  0mm 0.0 W/m2
02:55 66.7 °F /  19.3 °C 60.1 °F /  15.6 °C 29.73in /  1006.7hPa Calm   2.0mph /  3.2km/h 79% 0.00in /  0mm 0.0 W/m2
03:01 66.6 °F /  19.2 °C 59.9 °F /  15.5 °C 29.73in /  1006.7hPa NE 2.9mph /  4.7km/h 3.0mph /  4.8km/h 79% 0.00in /  0mm 0.0 W/m2
03:08 66.6 °F /  19.2 °C 60.3 °F /  15.7 °C 29.73in /  1006.7hPa Calm   6.0mph /  9.7km/h 80% 0.00in /  0mm 0.0 W/m2
03:14 66.4 °F /  19.1 °C 60.1 °F /  15.6 °C 29.73in /  1006.7hPa SE 0.9mph /  1.4km/h 4.0mph /  6.4km/h 80% 0.00in /  0mm 0.0 W/m2
03:20 66.4 °F /  19.1 °C 60.4 °F /  15.8 °C 29.73in /  1006.7hPa Calm   5.0mph /  8km/h 81% 0.00in /  0mm 0.0 W/m2
03:26 66.0 °F /  18.9 °C 60.4 °F /  15.8 °C 29.72in /  1006.3hPa Calm   3.0mph /  4.8km/h 82% 0.00in /  0mm 0.0 W/m2
03:32 65.8 °F /  18.8 °C 60.3 °F /  15.7 °C 29.72in /  1006.3hPa SE 2.0mph /  3.2km/h 8.0mph /  12.9km/h 82% 0.00in /  0mm 0.0 W/m2
03:38 65.7 °F /  18.7 °C 60.4 °F /  15.8 °C 29.72in /  1006.3hPa ESE 4.0mph /  6.4km/h 7.0mph /  11.3km/h 83% 0.00in /  0mm 0.0 W/m2
03:44 65.7 °F /  18.7 °C 60.4 °F /  15.8 °C 29.72in /  1006.3hPa NNE 0.9mph /  1.4km/h 10.0mph /  16.1km/h 83% 0.00in /  0mm 0.0 W/m2
03:50 65.5 °F /  18.6 °C 60.3 °F /  15.7 °C 29.72in /  1006.3hPa SSE 2.0mph /  3.2km/h 7.0mph /  11.3km/h 83% 0.00in /  0mm 0.0 W/m2
03:56 65.5 °F /  18.6 °C 60.3 °F /  15.7 °C 29.71in /  1006hPa Calm   7.0mph /  11.3km/h 83% 0.00in /  0mm 0.0 W/m2
04:02 65.5 °F /  18.6 °C 60.3 °F /  15.7 °C 29.72in /  1006.3hPa SE 2.9mph /  4.7km/h 7.0mph /  11.3km/h 83% 0.00in /  0mm 0.0 W/m2
04:09 65.5 °F /  18.6 °C 60.3 °F /  15.7 °C 29.72in /  1006.3hPa East 2.9mph /  4.7km/h 8.0mph /  12.9km/h 83% 0.00in /  0mm 0.0 W/m2
04:15 65.3 °F /  18.5 °C 60.1 °F /  15.6 °C 29.72in /  1006.3hPa SE 4.9mph /  7.9km/h 7.0mph /  11.3km/h 83% 0.00in /  0mm 0.0 W/m2
04:21 65.1 °F /  18.4 °C 60.1 °F /  15.6 °C 29.71in /  1006hPa NE 2.0mph /  3.2km/h 3.0mph /  4.8km/h 84% 0.00in /  0mm 0.0 W/m2
04:27 64.9 °F /  18.3 °C 59.9 °F /  15.5 °C 29.71in /  1006hPa Calm   3.0mph /  4.8km/h 84% 0.00in /  0mm 0.0 W/m2
04:33 64.8 °F /  18.2 °C 59.9 °F /  15.5 °C 29.71in /  1006hPa East 2.0mph /  3.2km/h 5.0mph /  8km/h 84% 0.00in /  0mm 0.0 W/m2
04:39 64.8 °F /  18.2 °C 59.9 °F /  15.5 °C 29.71in /  1006hPa Calm   2.0mph /  3.2km/h 84% 0.00in /  0mm 0.0 W/m2
04:45 64.6 °F /  18.1 °C 59.7 °F /  15.4 °C 29.71in /  1006hPa Calm   4.0mph /  6.4km/h 84% 0.00in /  0mm 0.0 W/m2
04:52 64.6 °F /  18.1 °C 59.4 °F /  15.2 °C 29.71in /  1006hPa Calm   1.0mph /  1.6km/h 83% 0.00in /  0mm 0.0 W/m2
04:58 64.4 °F /  18 °C 59.5 °F /  15.3 °C 29.71in /  1006hPa Calm   3.0mph /  4.8km/h 84% 0.00in /  0mm 0.0 W/m2
05:04 64.2 °F /  17.9 °C 59.0 °F /  15 °C 29.71in /  1006hPa Calm   2.0mph /  3.2km/h 83% 0.00in /  0mm 0.0 W/m2
05:10 64.2 °F /  17.9 °C 58.6 °F /  14.8 °C 29.71in /  1006hPa Calm   2.0mph /  3.2km/h 82% 0.00in /  0mm 0.0 W/m2
05:16 64.2 °F /  17.9 °C 58.3 °F /  14.6 °C 29.71in /  1006hPa Calm     81% 0.00in /  0mm 0.0 W/m2
05:22 64.2 °F /  17.9 °C 58.3 °F /  14.6 °C 29.71in /  1006hPa Calm   1.0mph /  1.6km/h 81% 0.00in /  0mm 0.0 W/m2
05:28 64.0 °F /  17.8 °C 58.5 °F /  14.7 °C 29.71in /  1006hPa Calm     82% 0.00in /  0mm 0.0 W/m2
05:34 63.9 °F /  17.7 °C 58.3 °F /  14.6 °C 29.71in /  1006hPa Calm     82% 0.00in /  0mm 0.0 W/m2
05:41 63.9 °F /  17.7 °C 58.3 °F /  14.6 °C 29.72in /  1006.3hPa Calm   1.0mph /  1.6km/h 82% 0.00in /  0mm 0.0 W/m2
05:47 63.7 °F /  17.6 °C 58.5 °F /  14.7 °C 29.72in /  1006.3hPa Calm     83% 0.00in /  0mm 0.0 W/m2
05:53 63.3 °F /  17.4 °C 58.1 °F /  14.5 °C 29.72in /  1006.3hPa Calm     83% 0.00in /  0mm 0.0 W/m2
05:59 63.3 °F /  17.4 °C 58.5 °F /  14.7 °C 29.72in /  1006.3hPa Calm     84% 0.00in /  0mm 0.0 W/m2
06:05 63.1 °F /  17.3 °C 58.3 °F /  14.6 °C 29.72in /  1006.3hPa Calm   1.0mph /  1.6km/h 84% 0.00in /  0mm 0.0 W/m2
06:11 63.0 °F /  17.2 °C 58.1 °F /  14.5 °C 29.72in /  1006.3hPa Calm     84% 0.00in /  0mm 0.0 W/m2
06:17 62.8 °F /  17.1 °C 58.3 °F /  14.6 °C 29.73in /  1006.7hPa Calm     85% 0.00in /  0mm 0.0 W/m2
06:24 62.8 °F /  17.1 °C 58.3 °F /  14.6 °C 29.73in /  1006.7hPa Calm     85% 0.00in /  0mm 0.0 W/m2
06:30 62.4 °F /  16.9 °C 57.9 °F /  14.4 °C 29.73in /  1006.7hPa Calm     85% 0.00in /  0mm 0.0 W/m2
06:36 62.2 °F /  16.8 °C 57.9 °F /  14.4 °C 29.74in /  1007hPa Calm   1.0mph /  1.6km/h 86% 0.00in /  0mm 0.0 W/m2
06:42 62.2 °F /  16.8 °C 57.9 °F /  14.4 °C 29.74in /  1007hPa Calm     86% 0.00in /  0mm 0.0 W/m2
06:48 62.1 °F /  16.7 °C 58.1 °F /  14.5 °C 29.74in /  1007hPa Calm     87% 0.00in /  0mm 0.0 W/m2
06:54 61.9 °F /  16.6 °C 57.9 °F /  14.4 °C 29.74in /  1007hPa Calm     87% 0.00in /  0mm 5.0 W/m2
07:00 61.7 °F /  16.5 °C 57.7 °F /  14.3 °C 29.74in /  1007hPa Calm     87% 0.00in /  0mm 7.0 W/m2
07:07 61.5 °F /  16.4 °C 57.6 °F /  14.2 °C 29.74in /  1007hPa Calm     87% 0.00in /  0mm 11.0 W/m2
07:13 61.5 °F /  16.4 °C 57.6 °F /  14.2 °C 29.75in /  1007.3hPa Calm     87% 0.00in /  0mm 12.0 W/m2
07:19 61.7 °F /  16.5 °C 57.7 °F /  14.3 °C 29.75in /  1007.3hPa Calm   3.0mph /  4.8km/h 87% 0.00in /  0mm 14.0 W/m2
07:25 61.9 °F /  16.6 °C 58.3 °F /  14.6 °C 29.75in /  1007.3hPa Calm   1.0mph /  1.6km/h 88% 0.00in /  0mm 16.0 W/m2
07:31 62.1 °F /  16.7 °C 58.5 °F /  14.7 °C 29.75in /  1007.3hPa Calm   3.0mph /  4.8km/h 88% 0.00in /  0mm 18.0 W/m2
07:37 62.2 °F /  16.8 °C 58.6 °F /  14.8 °C 29.75in /  1007.3hPa Calm   2.0mph /  3.2km/h 88% 0.00in /  0mm 19.0 W/m2
07:43 62.4 °F /  16.9 °C 58.5 °F /  14.7 °C 29.75in /  1007.3hPa SSW 0.9mph /  1.4km/h 4.0mph /  6.4km/h 87% 0.00in /  0mm 21.0 W/m2
07:49 63.1 °F /  17.3 °C 59.2 °F /  15.1 °C 29.75in /  1007.3hPa Calm   2.0mph /  3.2km/h 87% 0.00in /  0mm 25.0 W/m2
07:55 63.7 °F /  17.6 °C 59.0 °F /  15 °C 29.75in /  1007.3hPa East 0.9mph /  1.4km/h 6.0mph /  9.7km/h 85% 0.00in /  0mm 26.0 W/m2
08:02 64.2 °F /  17.9 °C 59.5 °F /  15.3 °C 29.76in /  1007.7hPa ENE 4.0mph /  6.4km/h 5.0mph /  8km/h 85% 0.00in /  0mm 28.0 W/m2
08:08 64.8 °F /  18.2 °C 59.5 °F /  15.3 °C 29.76in /  1007.7hPa NE 2.0mph /  3.2km/h 4.0mph /  6.4km/h 83% 0.00in /  0mm 26.0 W/m2
08:14 65.5 °F /  18.6 °C 59.9 °F /  15.5 °C 29.76in /  1007.7hPa North 0.9mph /  1.4km/h 7.0mph /  11.3km/h 82% 0.00in /  0mm 33.0 W/m2
08:20 65.8 °F /  18.8 °C 60.3 °F /  15.7 °C 29.76in /  1007.7hPa NE 4.0mph /  6.4km/h 5.0mph /  8km/h 82% 0.00in /  0mm 40.0 W/m2
08:26 66.4 °F /  19.1 °C 60.4 °F /  15.8 °C 29.76in /  1007.7hPa NNE 2.0mph /  3.2km/h 8.0mph /  12.9km/h 81% 0.00in /  0mm 74.0 W/m2
08:33 66.7 °F /  19.3 °C 60.8 °F /  16 °C 29.77in /  1008hPa Calm   5.0mph /  8km/h 81% 0.00in /  0mm 100.0 W/m2
08:38 67.1 °F /  19.5 °C 60.8 °F /  16 °C 29.77in /  1008hPa NNE 4.9mph /  7.9km/h 5.0mph /  8km/h 80% 0.00in /  0mm 84.0 W/m2
08:45 67.5 °F /  19.7 °C 61.2 °F /  16.2 °C 29.77in /  1008hPa North 4.9mph /  7.9km/h 6.0mph /  9.7km/h 80% 0.00in /  0mm 62.0 W/m2
08:51 67.6 °F /  19.8 °C 61.0 °F /  16.1 °C 29.77in /  1008hPa SE 4.9mph /  7.9km/h 7.0mph /  11.3km/h 79% 0.00in /  0mm 56.0 W/m2
08:57 67.8 °F /  19.9 °C 61.0 °F /  16.1 °C 29.77in /  1008hPa East 2.9mph /  4.7km/h 6.0mph /  9.7km/h 79% 0.00in /  0mm 62.0 W/m2
09:03 68.2 °F /  20.1 °C 61.0 °F /  16.1 °C 29.77in /  1008hPa SE 4.0mph /  6.4km/h 7.0mph /  11.3km/h 78% 0.00in /  0mm 142.0 W/m2
09:09 68.4 °F /  20.2 °C 60.8 °F /  16 °C 29.77in /  1008hPa ESE 6.0mph /  9.7km/h 10.0mph /  16.1km/h 77% 0.00in /  0mm 109.0 W/m2
09:15 68.9 °F /  20.5 °C 61.0 °F /  16.1 °C 29.77in /  1008hPa NE 4.0mph /  6.4km/h 8.0mph /  12.9km/h 76% 0.00in /  0mm 132.0 W/m2
09:21 69.3 °F /  20.7 °C 61.3 °F /  16.3 °C 29.77in /  1008hPa NE 4.9mph /  7.9km/h 8.0mph /  12.9km/h 76% 0.00in /  0mm 220.0 W/m2
09:27 69.6 °F /  20.9 °C 61.3 °F /  16.3 °C 29.77in /  1008hPa NE 6.0mph /  9.7km/h 10.0mph /  16.1km/h 75% 0.00in /  0mm 153.0 W/m2
09:34 69.6 °F /  20.9 °C 61.3 °F /  16.3 °C 29.77in /  1008hPa ENE 2.0mph /  3.2km/h 5.0mph /  8km/h 75% 0.00in /  0mm 160.0 W/m2
09:40 69.6 °F /  20.9 °C 61.3 °F /  16.3 °C 29.77in /  1008hPa North 4.9mph /  7.9km/h 8.0mph /  12.9km/h 75% 0.00in /  0mm 156.0 W/m2
09:46 69.4 °F /  20.8 °C 61.2 °F /  16.2 °C 29.77in /  1008hPa NNE 8.9mph /  14.3km/h 12.0mph /  19.3km/h 75% 0.00in /  0mm 178.0 W/m2
09:52 69.4 °F /  20.8 °C 61.2 °F /  16.2 °C 29.77in /  1008hPa NE 6.9mph /  11.1km/h 9.0mph /  14.5km/h 75% 0.00in /  0mm 311.0 W/m2
09:58 69.6 °F /  20.9 °C 61.3 °F /  16.3 °C 29.77in /  1008hPa NE 4.9mph /  7.9km/h 7.0mph /  11.3km/h 75% 0.00in /  0mm 784.0 W/m2
10:04 70.3 °F /  21.3 °C 61.7 °F /  16.5 °C 29.77in /  1008hPa NE 4.9mph /  7.9km/h 11.0mph /  17.7km/h 74% 0.00in /  0mm 835.0 W/m2
10:11 70.9 °F /  21.6 °C 61.3 °F /  16.3 °C 29.77in /  1008hPa North 6.0mph /  9.7km/h 7.0mph /  11.3km/h 72% 0.00in /  0mm 888.0 W/m2
10:17 71.8 °F /  22.1 °C 61.5 °F /  16.4 °C 29.77in /  1008hPa NE 4.0mph /  6.4km/h 9.0mph /  14.5km/h 70% 0.00in /  0mm 819.0 W/m2
10:23 71.8 °F /  22.1 °C 61.5 °F /  16.4 °C 29.77in /  1008hPa ENE 2.0mph /  3.2km/h 9.0mph /  14.5km/h 70% 0.00in /  0mm 831.0 W/m2
10:29 72.0 °F /  22.2 °C 61.7 °F /  16.5 °C 29.78in /  1008.4hPa East 2.0mph /  3.2km/h 8.0mph /  12.9km/h 70% 0.00in /  0mm 847.0 W/m2
10:35 71.6 °F /  22 °C 60.4 °F /  15.8 °C 29.78in /  1008.4hPa Calm   5.0mph /  8km/h 68% 0.00in /  0mm 364.0 W/m2
10:41 71.1 °F /  21.7 °C 60.8 °F /  16 °C 29.78in /  1008.4hPa ENE 4.9mph /  7.9km/h 11.0mph /  17.7km/h 70% 0.00in /  0mm 248.0 W/m2
10:47 70.9 °F /  21.6 °C 60.3 °F /  15.7 °C 29.78in /  1008.4hPa ENE 6.0mph /  9.7km/h 10.0mph /  16.1km/h 69% 0.00in /  0mm 274.0 W/m2
10:49 70.9 °F /  21.6 °C 60.3 °F /  15.7 °C 29.78in /  1008.4hPa NNE 6.0mph /  9.7km/h 13.0mph /  20.9km/h 69% 0.00in /  0mm 251.0 W/m2
11:02 70.9 °F /  21.6 °C 60.6 °F /  15.9 °C 29.78in /  1008.4hPa East 2.0mph /  3.2km/h 8.0mph /  12.9km/h 70% 0.00in /  0mm 431.0 W/m2
11:08 71.2 °F /  21.8 °C 60.6 °F /  15.9 °C 29.77in /  1008hPa NE 4.0mph /  6.4km/h 6.0mph /  9.7km/h 69% 0.00in /  0mm 378.0 W/m2
11:14 71.4 °F /  21.9 °C 60.8 °F /  16 °C 29.77in /  1008hPa NNE 6.0mph /  9.7km/h 7.0mph /  11.3km/h 69% 0.00in /  0mm 348.0 W/m2
11:20 71.6 °F /  22 °C 60.8 °F /  16 °C 29.77in /  1008hPa ENE 4.0mph /  6.4km/h 8.0mph /  12.9km/h 69% 0.00in /  0mm 341.0 W/m2
11:26 72.1 °F /  22.3 °C 61.0 °F /  16.1 °C 29.77in /  1008hPa ESE 2.0mph /  3.2km/h 9.0mph /  14.5km/h 68% 0.00in /  0mm 336.0 W/m2
11:32 72.9 °F /  22.7 °C 61.7 °F /  16.5 °C 29.77in /  1008hPa East 4.0mph /  6.4km/h 5.0mph /  8km/h 68% 0.00in /  0mm 729.0 W/m2
11:38 73.4 °F /  23 °C 61.3 °F /  16.3 °C 29.77in /  1008hPa ESE 4.9mph /  7.9km/h 9.0mph /  14.5km/h 66% 0.00in /  0mm 427.0 W/m2
11:44 74.1 °F /  23.4 °C 61.5 °F /  16.4 °C 29.77in /  1008hPa NE 6.0mph /  9.7km/h 9.0mph /  14.5km/h 65% 0.00in /  0mm 584.0 W/m2
11:51 74.7 °F /  23.7 °C 61.2 °F /  16.2 °C 29.77in /  1008hPa East 4.9mph /  7.9km/h 9.0mph /  14.5km/h 63% 0.00in /  0mm 1048.0 W/m2
11:57 75.0 °F /  23.9 °C 61.5 °F /  16.4 °C 29.77in /  1008hPa ESE 4.9mph /  7.9km/h 7.0mph /  11.3km/h 63% 0.00in /  0mm 373.0 W/m2
12:03 75.7 °F /  24.3 °C 62.2 °F /  16.8 °C 29.76in /  1007.7hPa East 2.9mph /  4.7km/h 6.0mph /  9.7km/h 63% 0.00in /  0mm 1292.0 W/m2
12:09 76.5 °F /  24.7 °C 61.5 °F /  16.4 °C 29.77in /  1008hPa East 4.0mph /  6.4km/h 9.0mph /  14.5km/h 60% 0.00in /  0mm 360.0 W/m2
12:15 76.3 °F /  24.6 °C 61.3 °F /  16.3 °C 29.76in /  1007.7hPa NE 2.9mph /  4.7km/h 11.0mph /  17.7km/h 60% 0.00in /  0mm 381.0 W/m2
12:21 76.3 °F /  24.6 °C 61.3 °F /  16.3 °C 29.76in /  1007.7hPa ENE 4.0mph /  6.4km/h 8.0mph /  12.9km/h 60% 0.00in /  0mm 601.0 W/m2
12:27 76.5 °F /  24.7 °C 62.4 °F /  16.9 °C 29.76in /  1007.7hPa NE 2.9mph /  4.7km/h 11.0mph /  17.7km/h 62% 0.00in /  0mm 571.0 W/m2
12:33 76.8 °F /  24.9 °C 62.4 °F /  16.9 °C 29.75in /  1007.3hPa East 4.0mph /  6.4km/h 7.0mph /  11.3km/h 61% 0.00in /  0mm 547.0 W/m2
12:40 76.8 °F /  24.9 °C 61.3 °F /  16.3 °C 29.76in /  1007.7hPa NE 0.9mph /  1.4km/h 10.0mph /  16.1km/h 59% 0.00in /  0mm 489.0 W/m2
12:46 77.0 °F /  25 °C 61.5 °F /  16.4 °C 29.75in /  1007.3hPa NNE 2.0mph /  3.2km/h 8.0mph /  12.9km/h 59% 0.00in /  0mm 475.0 W/m2
12:52 76.8 °F /  24.9 °C 61.0 °F /  16.1 °C 29.75in /  1007.3hPa ENE 10.1mph /  16.3km/h 10.1mph /  16.3km/h 58% 0.00in /  0mm 515.0 W/m2
12:58 77.2 °F /  25.1 °C 62.2 °F /  16.8 °C 29.75in /  1007.3hPa East 6.9mph /  11.1km/h 7.0mph /  11.3km/h 60% 0.00in /  0mm 707.0 W/m2
13:04 77.9 °F /  25.5 °C 61.9 °F /  16.6 °C 29.75in /  1007.3hPa NNE 6.9mph /  11.1km/h 9.0mph /  14.5km/h 58% 0.00in /  0mm 425.0 W/m2
13:10 78.3 °F /  25.7 °C 61.7 °F /  16.5 °C 29.75in /  1007.3hPa NNE 2.0mph /  3.2km/h 6.0mph /  9.7km/h 57% 0.00in /  0mm 540.0 W/m2
13:16 78.4 °F /  25.8 °C 61.5 °F /  16.4 °C 29.74in /  1007hPa ESE 2.0mph /  3.2km/h 10.0mph /  16.1km/h 56% 0.00in /  0mm 529.0 W/m2
13:22 78.6 °F /  25.9 °C 61.5 °F /  16.4 °C 29.74in /  1007hPa East 2.0mph /  3.2km/h 14.0mph /  22.5km/h 56% 0.00in /  0mm 490.0 W/m2
13:28 78.4 °F /  25.8 °C 61.5 °F /  16.4 °C 29.74in /  1007hPa Calm   9.0mph /  14.5km/h 56% 0.00in /  0mm 547.0 W/m2
13:35 78.6 °F /  25.9 °C 61.5 °F /  16.4 °C 29.74in /  1007hPa East 2.0mph /  3.2km/h 10.0mph /  16.1km/h 56% 0.00in /  0mm 540.0 W/m2
13:41 79.0 °F /  26.1 °C 61.9 °F /  16.6 °C 29.73in /  1006.7hPa ENE 6.0mph /  9.7km/h 8.0mph /  12.9km/h 56% 0.00in /  0mm 661.0 W/m2
13:47 79.2 °F /  26.2 °C 60.6 °F /  15.9 °C 29.73in /  1006.7hPa Calm   6.0mph /  9.7km/h 53% 0.00in /  0mm 661.0 W/m2
13:53 79.5 °F /  26.4 °C 60.8 °F /  16 °C 29.73in /  1006.7hPa ENE 2.0mph /  3.2km/h 8.0mph /  12.9km/h 53% 0.00in /  0mm 731.0 W/m2
13:59 80.1 °F /  26.7 °C 60.8 °F /  16 °C 29.72in /  1006.3hPa NE 8.1mph /  13km/h 8.1mph /  13km/h 52% 0.00in /  0mm 1136.0 W/m2
14:05 80.4 °F /  26.9 °C 60.6 °F /  15.9 °C 29.72in /  1006.3hPa NE 2.9mph /  4.7km/h 9.0mph /  14.5km/h 51% 0.00in /  0mm 1097.0 W/m2
14:11 81.3 °F /  27.4 °C 61.5 °F /  16.4 °C 29.72in /  1006.3hPa ENE 8.1mph /  13km/h 8.1mph /  13km/h 51% 0.00in /  0mm 1160.0 W/m2
14:17 81.9 °F /  27.7 °C 60.8 °F /  16 °C 29.72in /  1006.3hPa ENE 2.9mph /  4.7km/h 9.0mph /  14.5km/h 49% 0.00in /  0mm 1232.0 W/m2
14:23 82.0 °F /  27.8 °C 61.0 °F /  16.1 °C 29.71in /  1006hPa ESE 0.9mph /  1.4km/h 3.0mph /  4.8km/h 49% 0.00in /  0mm 965.0 W/m2
14:30 81.9 °F /  27.7 °C 60.8 °F /  16 °C 29.71in /  1006hPa East 4.0mph /  6.4km/h 8.0mph /  12.9km/h 49% 0.00in /  0mm 979.0 W/m2
14:36 82.2 °F /  27.9 °C 60.6 °F /  15.9 °C 29.71in /  1006hPa ENE 4.9mph /  7.9km/h 9.0mph /  14.5km/h 48% 0.00in /  0mm 972.0 W/m2
14:42 82.6 °F /  28.1 °C 60.3 °F /  15.7 °C 29.71in /  1006hPa NE 6.9mph /  11.1km/h 8.0mph /  12.9km/h 47% 0.00in /  0mm 962.0 W/m2
14:48 82.8 °F /  28.2 °C 59.9 °F /  15.5 °C 29.70in /  1005.6hPa NE 2.9mph /  4.7km/h 6.0mph /  9.7km/h 46% 0.00in /  0mm 923.0 W/m2
14:54 82.8 °F /  28.2 °C 60.4 °F /  15.8 °C 29.70in /  1005.6hPa SE 4.0mph /  6.4km/h 8.0mph /  12.9km/h 47% 0.00in /  0mm 830.0 W/m2
15:00 82.9 °F /  28.3 °C 60.1 °F /  15.6 °C 29.69in /  1005.3hPa North 4.9mph /  7.9km/h 7.0mph /  11.3km/h 46% 0.00in /  0mm 905.0 W/m2
15:06 83.1 °F /  28.4 °C 60.8 °F /  16 °C 29.69in /  1005.3hPa NNE 6.9mph /  11.1km/h 10.0mph /  16.1km/h 47% 0.00in /  0mm 981.0 W/m2
15:13 82.9 °F /  28.3 °C 60.1 °F /  15.6 °C 29.68in /  1005hPa ENE 4.0mph /  6.4km/h 6.0mph /  9.7km/h 46% 0.00in /  0mm 146.0 W/m2
15:19 82.2 °F /  27.9 °C 60.6 °F /  15.9 °C 29.68in /  1005hPa Calm   6.0mph /  9.7km/h 48% 0.00in /  0mm 875.0 W/m2
15:25 82.6 °F /  28.1 °C 59.7 °F /  15.4 °C 29.67in /  1004.6hPa SSE 4.9mph /  7.9km/h 6.0mph /  9.7km/h 46% 0.00in /  0mm 877.0 W/m2
15:31 82.6 °F /  28.1 °C 59.7 °F /  15.4 °C 29.67in /  1004.6hPa SSE 2.9mph /  4.7km/h 6.0mph /  9.7km/h 46% 0.00in /  0mm 814.0 W/m2
15:37 83.1 °F /  28.4 °C 59.5 °F /  15.3 °C 29.67in /  1004.6hPa Calm   6.0mph /  9.7km/h 45% 0.00in /  0mm 823.0 W/m2
15:43 83.7 °F /  28.7 °C 60.1 °F /  15.6 °C 29.66in /  1004.3hPa North 0.9mph /  1.4km/h 5.0mph /  8km/h 45% 0.00in /  0mm 765.0 W/m2
15:49 84.0 °F /  28.9 °C 60.4 °F /  15.8 °C 29.66in /  1004.3hPa SE 2.0mph /  3.2km/h 6.0mph /  9.7km/h 45% 0.00in /  0mm 798.0 W/m2
15:55 83.8 °F /  28.8 °C 59.5 °F /  15.3 °C 29.66in /  1004.3hPa ENE 0.9mph /  1.4km/h 4.0mph /  6.4km/h 44% 0.00in /  0mm 246.0 W/m2
16:02 84.0 °F /  28.9 °C 60.4 °F /  15.8 °C 29.66in /  1004.3hPa ENE 4.0mph /  6.4km/h 4.0mph /  6.4km/h 45% 0.00in /  0mm 793.0 W/m2
16:08 84.4 °F /  29.1 °C 58.8 °F /  14.9 °C 29.65in /  1003.9hPa Calm   3.0mph /  4.8km/h 42% 0.00in /  0mm 807.0 W/m2
16:14 84.9 °F /  29.4 °C 59.9 °F /  15.5 °C 29.65in /  1003.9hPa ENE 2.0mph /  3.2km/h 6.0mph /  9.7km/h 43% 0.00in /  0mm 761.0 W/m2
16:20 85.3 °F /  29.6 °C 59.5 °F /  15.3 °C 29.65in /  1003.9hPa SE 4.9mph /  7.9km/h 6.0mph /  9.7km/h 42% 0.00in /  0mm 445.0 W/m2
16:26 84.6 °F /  29.2 °C 60.3 °F /  15.7 °C 29.65in /  1003.9hPa SSE 4.0mph /  6.4km/h 4.0mph /  6.4km/h 44% 0.00in /  0mm 88.0 W/m2
16:32 83.5 °F /  28.6 °C 59.9 °F /  15.5 °C 29.65in /  1003.9hPa East 2.9mph /  4.7km/h 6.0mph /  9.7km/h 45% 0.00in /  0mm 98.0 W/m2
16:38 82.9 °F /  28.3 °C 59.4 °F /  15.2 °C 29.65in /  1003.9hPa ESE 4.9mph /  7.9km/h 7.0mph /  11.3km/h 45% 0.00in /  0mm 592.0 W/m2
16:44 82.9 °F /  28.3 °C 59.4 °F /  15.2 °C 29.65in /  1003.9hPa East 0.9mph /  1.4km/h 2.0mph /  3.2km/h 45% 0.00in /  0mm 564.0 W/m2
16:51 83.3 °F /  28.5 °C 59.2 °F /  15.1 °C 29.64in /  1003.6hPa ESE 4.0mph /  6.4km/h 5.0mph /  8km/h 44% 0.00in /  0mm 555.0 W/m2
16:57 83.8 °F /  28.8 °C 59.5 °F /  15.3 °C 29.64in /  1003.6hPa South 0.9mph /  1.4km/h 6.0mph /  9.7km/h 44% 0.00in /  0mm 543.0 W/m2
17:03 83.8 °F /  28.8 °C 60.3 °F /  15.7 °C 29.64in /  1003.6hPa SE 2.9mph /  4.7km/h 10.0mph /  16.1km/h 45% 0.00in /  0mm 508.0 W/m2
17:09 83.7 °F /  28.7 °C 59.4 °F /  15.2 °C 29.64in /  1003.6hPa East 2.9mph /  4.7km/h 6.0mph /  9.7km/h 44% 0.00in /  0mm 102.0 W/m2
17:17 82.4 °F /  28 °C 60.1 °F /  15.6 °C 29.64in /  1003.6hPa SE 2.9mph /  4.7km/h 4.0mph /  6.4km/h 47% 0.00in /  0mm 163.0 W/m2
17:23 81.9 °F /  27.7 °C 59.7 °F /  15.4 °C 29.64in /  1003.6hPa Calm   6.0mph /  9.7km/h 47% 0.00in /  0mm 111.0 W/m2
17:30 81.3 °F /  27.4 °C 59.7 °F /  15.4 °C 29.65in /  1003.9hPa SSE 2.0mph /  3.2km/h 6.0mph /  9.7km/h 48% 0.00in /  0mm 113.0 W/m2
17:37 81.0 °F /  27.2 °C 61.2 °F /  16.2 °C 29.65in /  1003.9hPa SE 2.9mph /  4.7km/h 3.0mph /  4.8km/h 51% 0.00in /  0mm 123.0 W/m2
17:44 81.0 °F /  27.2 °C 59.4 °F /  15.2 °C 29.65in /  1003.9hPa SE 2.0mph /  3.2km/h 5.0mph /  8km/h 48% 0.00in /  0mm 148.0 W/m2
17:50 80.8 °F /  27.1 °C 59.9 °F /  15.5 °C 29.65in /  1003.9hPa SE 2.9mph /  4.7km/h 7.0mph /  11.3km/h 49% 0.00in /  0mm 97.0 W/m2
17:56 80.2 °F /  26.8 °C 59.9 °F /  15.5 °C 29.65in /  1003.9hPa ESE 4.0mph /  6.4km/h 6.0mph /  9.7km/h 50% 0.00in /  0mm 88.0 W/m2
18:02 79.5 °F /  26.4 °C 60.8 °F /  16 °C 29.66in /  1004.3hPa ESE 2.9mph /  4.7km/h 7.0mph /  11.3km/h 53% 0.00in /  0mm 84.0 W/m2
18:08 78.6 °F /  25.9 °C 60.6 °F /  15.9 °C 29.65in /  1003.9hPa East 4.9mph /  7.9km/h 7.0mph /  11.3km/h 54% 0.00in /  0mm 90.0 W/m2
18:14 78.1 °F /  25.6 °C 61.2 °F /  16.2 °C 29.66in /  1004.3hPa ESE 8.9mph /  14.3km/h 9.0mph /  14.5km/h 56% 0.00in /  0mm 84.0 W/m2
18:21 77.2 °F /  25.1 °C 59.7 °F /  15.4 °C 29.67in /  1004.6hPa SE 6.9mph /  11.1km/h 8.0mph /  12.9km/h 55% 0.00in /  0mm 81.0 W/m2
18:27 76.5 °F /  24.7 °C 60.6 °F /  15.9 °C 29.67in /  1004.6hPa SSE 6.9mph /  11.1km/h 9.0mph /  14.5km/h 58% 0.00in /  0mm 72.0 W/m2
18:33 75.9 °F /  24.4 °C 61.0 °F /  16.1 °C 29.67in /  1004.6hPa SE 0.9mph /  1.4km/h 8.0mph /  12.9km/h 60% 0.00in /  0mm 51.0 W/m2
18:45 75.2 °F /  24 °C 60.8 °F /  16 °C 29.68in /  1005hPa Calm   8.0mph /  12.9km/h 61% 0.00in /  0mm 25.0 W/m2
18:51 74.8 °F /  23.8 °C 61.3 °F /  16.3 °C 29.68in /  1005hPa West 0.9mph /  1.4km/h 8.0mph /  12.9km/h 63% 0.00in /  0mm 18.0 W/m2
18:57 74.5 °F /  23.6 °C 61.5 °F /  16.4 °C 29.68in /  1005hPa ESE 2.9mph /  4.7km/h 8.0mph /  12.9km/h 64% 0.00in /  0mm 12.0 W/m2
19:03 73.9 °F /  23.3 °C 61.9 °F /  16.6 °C 29.69in /  1005.3hPa SE 6.0mph /  9.7km/h 7.0mph /  11.3km/h 66% 0.00in /  0mm 7.0 W/m2
19:10 73.6 °F /  23.1 °C 61.9 °F /  16.6 °C 29.69in /  1005.3hPa East 0.9mph /  1.4km/h 4.0mph /  6.4km/h 67% 0.00in /  0mm 7.0 W/m2
19:16 73.4 °F /  23 °C 62.6 °F /  17 °C 29.69in /  1005.3hPa Calm   5.0mph /  8km/h 69% 0.00in /  0mm 9.0 W/m2
19:22 73.0 °F /  22.8 °C 62.2 °F /  16.8 °C 29.69in /  1005.3hPa East 4.0mph /  6.4km/h 6.0mph /  9.7km/h 69% 0.00in /  0mm 0.0 W/m2
19:28 72.9 °F /  22.7 °C 62.1 °F /  16.7 °C 29.70in /  1005.6hPa ESE 2.9mph /  4.7km/h 3.0mph /  4.8km/h 69% 0.00in /  0mm 0.0 W/m2
19:34 72.7 °F /  22.6 °C 61.9 °F /  16.6 °C 29.70in /  1005.6hPa Calm   2.0mph /  3.2km/h 69% 0.00in /  0mm 0.0 W/m2
19:40 72.7 °F /  22.6 °C 61.5 °F /  16.4 °C 29.70in /  1005.6hPa Calm   2.0mph /  3.2km/h 68% 0.00in /  0mm 0.0 W/m2
19:46 72.7 °F /  22.6 °C 61.5 °F /  16.4 °C 29.71in /  1006hPa ESE 0.9mph /  1.4km/h 3.0mph /  4.8km/h 68% 0.00in /  0mm 0.0 W/m2
19:52 72.5 °F /  22.5 °C 61.0 °F /  16.1 °C 29.71in /  1006hPa SE 2.0mph /  3.2km/h 3.0mph /  4.8km/h 67% 0.00in /  0mm 0.0 W/m2
19:58 72.5 °F /  22.5 °C 61.0 °F /  16.1 °C 29.71in /  1006hPa SE 2.0mph /  3.2km/h 4.0mph /  6.4km/h 67% 0.00in /  0mm 0.0 W/m2
20:05 72.3 °F /  22.4 °C 60.8 °F /  16 °C 29.72in /  1006.3hPa ESE 2.9mph /  4.7km/h 6.0mph /  9.7km/h 67% 0.00in /  0mm 0.0 W/m2
20:11 72.3 °F /  22.4 °C 60.3 °F /  15.7 °C 29.72in /  1006.3hPa ESE 4.0mph /  6.4km/h 5.0mph /  8km/h 66% 0.00in /  0mm 0.0 W/m2
20:17 72.3 °F /  22.4 °C 59.9 °F /  15.5 °C 29.72in /  1006.3hPa ENE 0.9mph /  1.4km/h 5.0mph /  8km/h 65% 0.00in /  0mm 0.0 W/m2
20:23 72.5 °F /  22.5 °C 60.1 °F /  15.6 °C 29.72in /  1006.3hPa Calm   4.0mph /  6.4km/h 65% 0.00in /  0mm 0.0 W/m2
20:29 72.5 °F /  22.5 °C 60.1 °F /  15.6 °C 29.73in /  1006.7hPa ESE 4.9mph /  7.9km/h 6.0mph /  9.7km/h 65% 0.00in /  0mm 0.0 W/m2
20:35 72.3 °F /  22.4 °C 59.5 °F /  15.3 °C 29.73in /  1006.7hPa SE 4.0mph /  6.4km/h 6.0mph /  9.7km/h 64% 0.00in /  0mm 0.0 W/m2
20:41 72.1 °F /  22.3 °C 59.4 °F /  15.2 °C 29.73in /  1006.7hPa SE 2.9mph /  4.7km/h 4.0mph /  6.4km/h 64% 0.00in /  0mm 0.0 W/m2
20:47 72.1 °F /  22.3 °C 59.4 °F /  15.2 °C 29.74in /  1007hPa Calm   2.0mph /  3.2km/h 64% 0.00in /  0mm 0.0 W/m2
20:54 72.0 °F /  22.2 °C 59.5 °F /  15.3 °C 29.74in /  1007hPa Calm   1.0mph /  1.6km/h 65% 0.00in /  0mm 0.0 W/m2
21:00 72.0 °F /  22.2 °C 59.5 °F /  15.3 °C 29.74in /  1007hPa Calm   1.0mph /  1.6km/h 65% 0.00in /  0mm 0.0 W/m2
21:06 71.6 °F /  22 °C 59.7 °F /  15.4 °C 29.74in /  1007hPa Calm     66% 0.00in /  0mm 0.0 W/m2
21:12 71.4 °F /  21.9 °C 59.9 °F /  15.5 °C 29.75in /  1007.3hPa Calm     67% 0.00in /  0mm 0.0 W/m2
21:18 71.2 °F /  21.8 °C 60.1 °F /  15.6 °C 29.75in /  1007.3hPa Calm     68% 0.00in /  0mm 0.0 W/m2
21:24 70.9 °F /  21.6 °C 59.7 °F /  15.4 °C 29.75in /  1007.3hPa Calm     68% 0.00in /  0mm 0.0 W/m2
21:30 70.5 °F /  21.4 °C 59.4 °F /  15.2 °C 29.76in /  1007.7hPa Calm     68% 0.00in /  0mm 0.0 W/m2
21:36 70.3 °F /  21.3 °C 60.1 °F /  15.6 °C 29.76in /  1007.7hPa Calm     70% 0.00in /  0mm 0.0 W/m2
21:42 70.0 °F /  21.1 °C 60.1 °F /  15.6 °C 29.77in /  1008hPa NNE 4.9mph /  7.9km/h 7.0mph /  11.3km/h 71% 0.00in /  0mm 0.0 W/m2
21:49 69.6 °F /  20.9 °C 60.3 °F /  15.7 °C 29.77in /  1008hPa NNE 0.9mph /  1.4km/h 5.0mph /  8km/h 72% 0.00in /  0mm 0.0 W/m2
21:55 69.4 °F /  20.8 °C 60.4 °F /  15.8 °C 29.76in /  1007.7hPa NE 2.9mph /  4.7km/h 5.0mph /  8km/h 73% 0.00in /  0mm 0.0 W/m2
22:01 69.3 °F /  20.7 °C 60.6 °F /  15.9 °C 29.77in /  1008hPa SE 2.0mph /  3.2km/h 4.0mph /  6.4km/h 74% 0.00in /  0mm 0.0 W/m2
22:07 68.9 °F /  20.5 °C 60.6 °F /  15.9 °C 29.77in /  1008hPa Calm   5.0mph /  8km/h 75% 0.00in /  0mm 0.0 W/m2
22:13 68.7 °F /  20.4 °C 60.8 °F /  16 °C 29.77in /  1008hPa East 2.9mph /  4.7km/h 4.0mph /  6.4km/h 76% 0.00in /  0mm 0.0 W/m2
22:19 68.4 °F /  20.2 °C 60.4 °F /  15.8 °C 29.77in /  1008hPa Calm   3.0mph /  4.8km/h 76% 0.00in /  0mm 0.0 W/m2
22:25 68.2 °F /  20.1 °C 61.0 °F /  16.1 °C 29.77in /  1008hPa Calm   4.0mph /  6.4km/h 78% 0.00in /  0mm 0.0 W/m2
22:32 67.8 °F /  19.9 °C 60.6 °F /  15.9 °C 29.77in /  1008hPa Calm   2.0mph /  3.2km/h 78% 0.00in /  0mm 0.0 W/m2
22:38 67.8 °F /  19.9 °C 60.6 °F /  15.9 °C 29.77in /  1008hPa East 0.9mph /  1.4km/h 2.0mph /  3.2km/h 78% 0.00in /  0mm 0.0 W/m2
22:44 67.6 °F /  19.8 °C 61.0 °F /  16.1 °C 29.77in /  1008hPa Calm   1.0mph /  1.6km/h 79% 0.00in /  0mm 0.0 W/m2
22:50 67.5 °F /  19.7 °C 60.8 °F /  16 °C 29.77in /  1008hPa Calm   3.0mph /  4.8km/h 79% 0.00in /  0mm 0.0 W/m2
22:56 67.3 °F /  19.6 °C 60.6 °F /  15.9 °C 29.77in /  1008hPa ESE 2.0mph /  3.2km/h 2.0mph /  3.2km/h 79% 0.00in /  0mm 0.0 W/m2
23:02 66.9 °F /  19.4 °C 60.3 °F /  15.7 °C 29.77in /  1008hPa ESE 2.0mph /  3.2km/h 3.0mph /  4.8km/h 79% 0.00in /  0mm 0.0 W/m2
23:08 66.9 °F /  19.4 °C 60.3 °F /  15.7 °C 29.77in /  1008hPa Calm   2.0mph /  3.2km/h 79% 0.00in /  0mm 0.0 W/m2
23:14 66.7 °F /  19.3 °C 60.1 °F /  15.6 °C 29.77in /  1008hPa Calm   3.0mph /  4.8km/h 79% 0.00in /  0mm 0.0 W/m2
23:20 66.7 °F /  19.3 °C 60.1 °F /  15.6 °C 29.76in /  1007.7hPa Calm   1.0mph /  1.6km/h 79% 0.00in /  0mm 0.0 W/m2
23:26 66.6 °F /  19.2 °C 59.9 °F /  15.5 °C 29.76in /  1007.7hPa Calm   2.0mph /  3.2km/h 79% 0.00in /  0mm 0.0 W/m2
23:32 66.6 °F /  19.2 °C 60.3 °F /  15.7 °C 29.77in /  1008hPa ESE 0.9mph /  1.4km/h 2.0mph /  3.2km/h 80% 0.00in /  0mm 0.0 W/m2
23:38 66.4 °F /  19.1 °C 60.1 °F /  15.6 °C 29.77in /  1008hPa Calm   1.0mph /  1.6km/h 80% 0.00in /  0mm 0.0 W/m2
23:44 66.4 °F /  19.1 °C 60.1 °F /  15.6 °C 29.77in /  1008hPa Calm   3.0mph /  4.8km/h 80% 0.00in /  0mm 0.0 W/m2
23:50 66.4 °F /  19.1 °C 59.7 °F /  15.4 °C 29.78in /  1008.4hPa East 0.9mph /  1.4km/h 3.0mph /  4.8km/h 79% 0.00in /  0mm 0.0 W/m2
23:56 66.6 °F /  19.2 °C 59.2 °F /  15.1 °C 29.79in /  1008.7hPa SE 17.0mph /  27.4km/h 19.0mph /  30.6km/h 77% 0.00in /  0mm 0.0 W/m2
Olympia, Windhoek, Namibia
Compliments of Weather Underground - 3 mb